createdAt,value
2023-04-16T00:02:15.889Z,96902.94
2023-04-16T00:07:17.645Z,96904.03
2023-04-16T00:12:19.296Z,96903.44
2023-04-16T00:17:20.907Z,96910.00
2023-04-16T00:22:22.544Z,96906.81
2023-04-16T00:27:24.547Z,96913.59
2023-04-16T00:32:26.373Z,96907.28
2023-04-16T00:37:28.050Z,96907.22
2023-04-16T00:42:30.199Z,96905.50
2023-04-16T00:47:32.035Z,96904.06
2023-04-16T00:52:34.495Z,96909.78
2023-04-16T00:57:36.239Z,96915.78
2023-04-16T01:02:38.480Z,96914.66
2023-04-16T01:07:40.266Z,96915.25
2023-04-16T01:12:41.936Z,96924.00
2023-04-16T01:17:45.560Z,96922.38
2023-04-16T01:22:47.289Z,96917.84
2023-04-16T01:27:54.772Z,96925.91
2023-04-16T01:32:57.798Z,96929.75
2023-04-16T01:37:59.539Z,96923.00
2023-04-16T01:43:01.223Z,96929.50
2023-04-16T01:48:03.662Z,96932.28
2023-04-16T01:53:05.386Z,96931.56
2023-04-16T01:58:10.565Z,96930.22
2023-04-16T02:03:12.776Z,96928.53
2023-04-16T02:08:14.664Z,96933.13
2023-04-16T02:13:16.716Z,96935.53
2023-04-16T02:18:21.234Z,96927.09
2023-04-16T02:23:23.344Z,96929.56
2023-04-16T02:28:25.231Z,96940.28
2023-04-16T02:33:26.915Z,96942.94
2023-04-16T02:38:37.427Z,96950.03
2023-04-16T02:43:39.355Z,96956.06
2023-04-16T02:48:41.057Z,96953.06
2023-04-16T02:53:45.926Z,96961.06
2023-04-16T02:58:48.115Z,96949.06
2023-04-16T03:03:49.988Z,96951.78
2023-04-16T03:08:51.887Z,96950.59
2023-04-16T03:13:53.865Z,96969.47
2023-04-16T03:18:55.686Z,96961.84
2023-04-16T03:23:57.560Z,96962.09
2023-04-16T03:28:59.938Z,96974.09
2023-04-16T03:34:03.627Z,96978.19
2023-04-16T03:39:06.422Z,96980.66
2023-04-16T03:44:08.244Z,96978.00
2023-04-16T03:49:10.585Z,96976.88
2023-04-16T03:54:13.410Z,96979.03
2023-04-16T03:59:17.103Z,96992.72
2023-04-16T04:04:19.450Z,96981.69
2023-04-16T04:09:21.433Z,96990.97
2023-04-16T04:14:23.158Z,96990.47
2023-04-16T04:19:24.821Z,97000.34
2023-04-16T04:24:27.071Z,97000.91
2023-04-16T04:29:29.094Z,97005.28
2023-04-16T04:34:30.948Z,96999.31
2023-04-16T04:39:33.611Z,97014.34
2023-04-16T04:44:36.374Z,97018.47
2023-04-16T04:49:38.044Z,97012.72
2023-04-16T04:54:41.685Z,97015.34
2023-04-16T04:59:43.526Z,97022.13
2023-04-16T05:04:49.491Z,97027.59
2023-04-16T05:09:51.921Z,97025.44
2023-04-16T05:14:53.734Z,97023.25
2023-04-16T05:19:55.342Z,97039.63
2023-04-16T05:24:56.900Z,97035.00
2023-04-16T05:29:58.465Z,97037.47
2023-04-16T05:35:00.038Z,97049.53
2023-04-16T05:40:02.315Z,97052.31
2023-04-16T05:45:04.859Z,97054.28
2023-04-16T05:50:06.887Z,97057.59
2023-04-16T05:55:08.912Z,97056.84
2023-04-16T06:00:10.918Z,97059.13
2023-04-16T06:05:15.861Z,97065.09
2023-04-16T06:10:17.553Z,97070.28
2023-04-16T06:15:19.249Z,97076.06
2023-04-16T06:20:20.939Z,97079.41
2023-04-16T06:25:22.612Z,97080.25
2023-04-16T06:30:24.223Z,97082.47
2023-04-16T06:35:25.938Z,97072.69
2023-04-16T06:40:27.725Z,97089.16
2023-04-16T06:45:29.592Z,97094.94
2023-04-16T06:50:31.403Z,97093.31
2023-04-16T06:55:32.983Z,97093.44
2023-04-16T07:00:35.184Z,97095.44
2023-04-16T07:05:36.829Z,97102.59
2023-04-16T07:10:38.490Z,97094.66
2023-04-16T07:15:40.157Z,97102.34
2023-04-16T07:20:41.895Z,97088.47
2023-04-16T07:25:44.534Z,97097.63
2023-04-16T07:30:46.237Z,97102.56
2023-04-16T07:35:47.937Z,97104.75
2023-04-16T07:40:49.977Z,97110.22
2023-04-16T07:45:51.736Z,97111.38
2023-04-16T07:53:50.265Z,97113.66
2023-04-16T07:58:51.863Z,97111.00
2023-04-16T08:03:53.612Z,97120.91
2023-04-16T08:08:55.971Z,97117.66
2023-04-16T08:13:57.639Z,97123.69
2023-04-16T08:19:01.053Z,97122.91
2023-04-16T08:24:02.705Z,97140.22
2023-04-16T08:29:04.584Z,97145.19
2023-04-16T08:34:06.141Z,97143.56
2023-04-16T08:39:08.426Z,97144.66
2023-04-16T08:44:14.749Z,97142.53
2023-04-16T08:49:20.700Z,97154.59
2023-04-16T08:54:40.973Z,97150.78
2023-04-16T08:59:46.070Z,97152.69
2023-04-16T09:04:48.504Z,97162.31
2023-04-16T09:09:53.153Z,97158.19
2023-04-16T09:14:56.971Z,97174.09
2023-04-16T09:19:58.557Z,97179.34
2023-04-16T09:25:00.306Z,97177.16
2023-04-16T09:30:01.921Z,97178.25
2023-04-16T09:35:03.685Z,97180.97
2023-04-16T09:40:13.890Z,97187.03
2023-04-16T09:45:19.537Z,97186.44
2023-04-16T09:50:21.591Z,97184.25
2023-04-16T09:55:23.794Z,97181.78
2023-04-16T10:00:25.512Z,97178.22
2023-04-16T10:05:27.481Z,97188.09
2023-04-16T10:10:29.637Z,97196.31
2023-04-16T10:15:31.378Z,97197.97
2023-04-16T10:20:33.030Z,97200.69
2023-04-16T10:25:35.183Z,97209.47
2023-04-16T10:30:37.534Z,97208.41
2023-04-16T10:35:40.385Z,97221.00
2023-04-16T10:40:44.711Z,97219.91
2023-04-16T10:45:47.521Z,97216.63
2023-04-16T10:50:57.262Z,97218.53
2023-04-16T10:56:11.046Z,97226.50
2023-04-16T11:01:13.697Z,97228.97
2023-04-16T11:06:17.518Z,97224.88
2023-04-16T11:11:19.958Z,97225.13
2023-04-16T11:16:21.631Z,97217.72
2023-04-16T11:21:23.408Z,97221.56
2023-04-16T11:26:26.423Z,97218.28
2023-04-16T11:31:28.264Z,97227.06
2023-04-16T11:36:42.847Z,97230.63
2023-04-16T11:41:44.746Z,97225.66
2023-04-16T11:46:46.406Z,97228.09
2023-04-16T11:51:48.153Z,97226.19
2023-04-16T11:56:50.969Z,97227.00
2023-04-16T12:01:55.484Z,97232.50
2023-04-16T12:07:06.759Z,97233.06
2023-04-16T12:12:27.496Z,97239.94
2023-04-16T12:17:30.225Z,97229.53
2023-04-16T12:22:37.068Z,97231.69
2023-04-16T12:27:50.718Z,97226.69
2023-04-16T12:33:14.154Z,97226.69
2023-04-16T12:38:15.896Z,97219.25
2023-04-16T12:43:17.936Z,97234.31
2023-04-16T12:48:19.536Z,97235.44
2023-04-16T12:53:21.153Z,97239.59
2023-04-16T12:58:23.182Z,97230.78
2023-04-16T13:03:24.919Z,97238.19
2023-04-16T13:08:26.689Z,97235.97
2023-04-16T13:13:29.151Z,97238.44
2023-04-16T13:18:30.920Z,97230.22
2023-04-16T13:23:32.500Z,97227.69
2023-04-16T13:28:34.636Z,97220.53
2023-04-16T13:33:36.313Z,97230.13
2023-04-16T13:38:39.468Z,97218.25
2023-04-16T13:43:41.347Z,97222.66
2023-04-16T13:48:43.085Z,97225.09
2023-04-16T13:53:45.233Z,97220.53
2023-04-16T13:58:46.836Z,97220.94
2023-04-16T14:03:48.996Z,97221.94
2023-04-16T14:08:50.768Z,97227.75
2023-04-16T14:13:52.775Z,97233.13
2023-04-16T14:18:54.353Z,97228.03
2023-04-16T14:23:56.157Z,97225.13
2023-04-16T14:28:57.715Z,97224.91
2023-04-16T14:33:59.639Z,97222.16
2023-04-16T14:39:01.373Z,97235.94
2023-04-16T14:44:04.247Z,97244.47
2023-04-16T14:49:06.024Z,97237.34
2023-04-16T14:54:07.595Z,97235.41
2023-04-16T14:59:09.634Z,97244.22
2023-04-16T15:04:11.795Z,97239.78
2023-04-16T15:09:13.484Z,97233.91
2023-04-16T15:14:15.065Z,97241.88
2023-04-16T15:19:16.693Z,97237.44
2023-04-16T15:24:18.338Z,97239.41
2023-04-16T15:29:19.995Z,97252.63
2023-04-16T15:34:21.690Z,97250.72
2023-04-16T15:39:23.285Z,97253.28
2023-04-16T15:44:26.067Z,97253.75
2023-04-16T15:49:27.742Z,97254.59
2023-04-16T15:54:29.625Z,97254.66
2023-04-16T15:59:31.322Z,97261.53
2023-04-16T16:04:32.969Z,97263.50
2023-04-16T16:09:35.461Z,97267.59
2023-04-16T16:14:37.712Z,97271.19
2023-04-16T16:19:39.268Z,97273.84
2023-04-16T16:24:40.872Z,97273.28
2023-04-16T16:29:42.474Z,97281.25
2023-04-16T16:34:44.098Z,97278.22
2023-04-16T16:39:45.899Z,97288.16
2023-04-16T16:44:48.745Z,97289.84
2023-04-16T16:49:50.519Z,97289.91
2023-04-16T16:54:56.733Z,97288.84
2023-04-16T16:59:59.002Z,97293.31
2023-04-16T17:05:01.126Z,97301.63
2023-04-16T17:10:06.083Z,97304.97
2023-04-16T17:15:08.740Z,97309.63
2023-04-16T17:20:12.254Z,97303.03
2023-04-16T17:25:14.188Z,97314.28
2023-04-16T17:30:16.374Z,97311.00
2023-04-16T17:35:17.937Z,97317.03
2023-04-16T17:40:19.713Z,97314.28
2023-04-16T17:45:21.378Z,97325.25
2023-04-16T17:50:22.990Z,97324.72
2023-04-16T17:55:24.997Z,97328.28
2023-04-16T18:00:26.560Z,97329.13
2023-04-16T18:05:28.350Z,97341.38
2023-04-16T18:10:31.556Z,97345.09
2023-04-16T18:15:39.232Z,97350.84
2023-04-16T18:20:41.019Z,97362.22
2023-04-16T18:25:42.732Z,97378.28
2023-04-16T18:30:44.667Z,97377.91
2023-04-16T18:35:46.313Z,97390.63
2023-04-16T18:40:49.706Z,97395.84
2023-04-16T18:45:51.675Z,97396.69
2023-04-16T18:50:54.181Z,97394.84
2023-04-16T18:55:56.143Z,97397.59
2023-04-16T19:01:01.276Z,97399.53
2023-04-16T19:06:02.926Z,97408.69
2023-04-16T19:11:04.496Z,97401.00
2023-04-16T19:16:11.865Z,97410.25
2023-04-16T19:21:13.586Z,97417.53
2023-04-16T19:26:17.735Z,97425.66
2023-04-16T19:31:19.338Z,97421.06
2023-04-16T19:36:21.175Z,97426.97
2023-04-16T19:41:22.798Z,97428.53
2023-04-16T19:46:24.485Z,97432.09
2023-04-16T19:51:27.008Z,97429.56
2023-04-16T19:56:28.631Z,97432.69
2023-04-16T20:01:32.985Z,97434.50
2023-04-16T20:06:34.722Z,97439.19
2023-04-16T20:11:36.635Z,97436.97
2023-04-16T20:16:38.709Z,97437.00
2023-04-16T20:21:40.606Z,97436.69
2023-04-16T20:26:42.267Z,97431.13
2023-04-16T20:31:45.871Z,97439.97
2023-04-16T20:36:47.587Z,97429.72
2023-04-16T20:41:56.612Z,97427.94
2023-04-16T20:46:59.455Z,97423.50
2023-04-16T20:52:02.122Z,97422.97
2023-04-16T20:57:04.883Z,97430.03
2023-04-16T21:02:07.668Z,97432.97
2023-04-16T21:07:09.497Z,97436.41
2023-04-16T21:12:11.354Z,97435.09
2023-04-16T21:17:12.912Z,97443.44
2023-04-16T21:22:14.929Z,97438.97
2023-04-16T21:27:16.624Z,97441.78
2023-04-16T21:32:18.460Z,97446.66
2023-04-16T21:37:20.145Z,97446.31
2023-04-16T21:42:21.768Z,97437.69
2023-04-16T21:47:23.486Z,97439.78
2023-04-16T21:52:25.231Z,97439.94
2023-04-16T21:57:27.545Z,97432.97
2023-04-16T22:02:29.325Z,97429.63
2023-04-16T22:07:31.006Z,97441.03
2023-04-16T22:12:32.711Z,97436.91
2023-04-16T22:17:34.710Z,97436.25
2023-04-16T22:22:36.449Z,97433.94
2023-04-16T22:27:38.116Z,97433.50
2023-04-16T22:32:40.062Z,97428.97
2023-04-16T22:37:41.981Z,97425.16
2023-04-16T22:42:43.680Z,97435.91
2023-04-16T22:47:45.790Z,97438.53
2023-04-16T22:52:47.752Z,97434.25
2023-04-16T22:57:49.359Z,97428.25
2023-04-16T23:02:51.033Z,97433.09
2023-04-16T23:07:52.679Z,97428.00
2023-04-16T23:12:54.345Z,97424.19
2023-04-16T23:17:56.075Z,97423.34
2023-04-16T23:22:57.837Z,97432.63
2023-04-16T23:27:59.494Z,97424.53
2023-04-16T23:33:01.202Z,97427.91
2023-04-16T23:38:03.335Z,97420.22
2023-04-16T23:43:05.200Z,97426.75
2023-04-16T23:48:06.886Z,97418.38
2023-04-16T23:53:08.474Z,97417.25
2023-04-16T23:58:10.288Z,97421.06
